sensor_id;sensor_type;location;lat;lon;timestamp;P1;durP1;ratioP1;P2;durP2;ratioP2
34212;SDS011;20477;51.390;8.102;2024-02-26T00:01:56;6.05;;;3.00;;
34212;SDS011;20477;51.390;8.102;2024-02-26T00:04:23;5.85;;;3.15;;
34212;SDS011;20477;51.390;8.102;2024-02-26T00:06:50;3.95;;;2.63;;
34212;SDS011;20477;51.390;8.102;2024-02-26T00:09:17;6.57;;;2.90;;
34212;SDS011;20477;51.390;8.102;2024-02-26T00:11:45;4.90;;;2.50;;
34212;SDS011;20477;51.390;8.102;2024-02-26T00:14:12;3.25;;;2.65;;
34212;SDS011;20477;51.390;8.102;2024-02-26T00:16:41;5.07;;;2.92;;
34212;SDS011;20477;51.390;8.102;2024-02-26T00:19:08;5.22;;;2.70;;
34212;SDS011;20477;51.390;8.102;2024-02-26T00:21:35;4.43;;;2.47;;
34212;SDS011;20477;51.390;8.102;2024-02-26T00:24:02;3.85;;;2.35;;
34212;SDS011;20477;51.390;8.102;2024-02-26T00:26:29;6.75;;;2.63;;
34212;SDS011;20477;51.390;8.102;2024-02-26T00:28:56;7.93;;;3.17;;
34212;SDS011;20477;51.390;8.102;2024-02-26T00:31:23;6.28;;;2.42;;
34212;SDS011;20477;51.390;8.102;2024-02-26T00:33:51;3.15;;;2.17;;
34212;SDS011;20477;51.390;8.102;2024-02-26T00:36:18;4.25;;;2.38;;
34212;SDS011;20477;51.390;8.102;2024-02-26T00:38:45;3.88;;;2.40;;
34212;SDS011;20477;51.390;8.102;2024-02-26T00:41:12;3.85;;;2.33;;
34212;SDS011;20477;51.390;8.102;2024-02-26T00:43:39;3.38;;;2.33;;
34212;SDS011;20477;51.390;8.102;2024-02-26T00:46:06;4.93;;;2.42;;
34212;SDS011;20477;51.390;8.102;2024-02-26T00:48:33;4.15;;;2.25;;
34212;SDS011;20477;51.390;8.102;2024-02-26T00:51:02;4.63;;;2.28;;
34212;SDS011;20477;51.390;8.102;2024-02-26T00:53:29;4.22;;;2.28;;
34212;SDS011;20477;51.390;8.102;2024-02-26T00:55:56;2.97;;;1.65;;
34212;SDS011;20477;51.390;8.102;2024-02-26T00:58:23;3.83;;;1.75;;
34212;SDS011;20477;51.390;8.102;2024-02-26T01:00:50;2.08;;;1.67;;
34212;SDS011;20477;51.390;8.102;2024-02-26T01:03:17;5.53;;;1.77;;
34212;SDS011;20477;51.390;8.102;2024-02-26T01:05:44;2.50;;;1.73;;
34212;SDS011;20477;51.390;8.102;2024-02-26T01:08:13;2.50;;;1.80;;
34212;SDS011;20477;51.390;8.102;2024-02-26T01:10:40;2.90;;;1.30;;
34212;SDS011;20477;51.390;8.102;2024-02-26T01:13:07;2.78;;;1.88;;
34212;SDS011;20477;51.390;8.102;2024-02-26T01:15:33;3.22;;;1.83;;
34212;SDS011;20477;51.390;8.102;2024-02-26T01:18:00;2.88;;;1.52;;
34212;SDS011;20477;51.390;8.102;2024-02-26T01:20:27;2.15;;;1.58;;
34212;SDS011;20477;51.390;8.102;2024-02-26T01:22:54;3.22;;;1.80;;
34212;SDS011;20477;51.390;8.102;2024-02-26T01:25:22;7.65;;;1.40;;
34212;SDS011;20477;51.390;8.102;2024-02-26T01:27:49;3.20;;;1.50;;
34212;SDS011;20477;51.390;8.102;2024-02-26T01:30:16;4.15;;;2.00;;
34212;SDS011;20477;51.390;8.102;2024-02-26T01:32:43;2.40;;;1.50;;
34212;SDS011;20477;51.390;8.102;2024-02-26T01:35:11;1.60;;;1.42;;
34212;SDS011;20477;51.390;8.102;2024-02-26T01:37:38;1.90;;;1.30;;
34212;SDS011;20477;51.390;8.102;2024-02-26T01:40:05;2.50;;;1.50;;
34212;SDS011;20477;51.390;8.102;2024-02-26T01:42:34;3.25;;;1.70;;
34212;SDS011;20477;51.390;8.102;2024-02-26T01:45:01;2.70;;;1.10;;
34212;SDS011;20477;51.390;8.102;2024-02-26T01:47:28;2.67;;;1.73;;
34212;SDS011;20477;51.390;8.102;2024-02-26T01:49:55;2.20;;;1.30;;
34212;SDS011;20477;51.390;8.102;2024-02-26T01:52:22;2.65;;;1.42;;
34212;SDS011;20477;51.390;8.102;2024-02-26T01:54:49;3.90;;;1.40;;
34212;SDS011;20477;51.390;8.102;2024-02-26T01:57:16;2.63;;;1.30;;
34212;SDS011;20477;51.390;8.102;2024-02-26T01:59:45;1.77;;;1.40;;
34212;SDS011;20477;51.390;8.102;2024-02-26T02:02:12;2.42;;;1.50;;
34212;SDS011;20477;51.390;8.102;2024-02-26T02:04:40;2.20;;;1.38;;
34212;SDS011;20477;51.390;8.102;2024-02-26T02:07:07;2.00;;;1.30;;
34212;SDS011;20477;51.390;8.102;2024-02-26T02:09:34;2.17;;;1.42;;
34212;SDS011;20477;51.390;8.102;2024-02-26T02:12:01;2.38;;;1.25;;
34212;SDS011;20477;51.390;8.102;2024-02-26T02:14:29;1.70;;;1.30;;
34212;SDS011;20477;51.390;8.102;2024-02-26T02:16:57;3.47;;;1.50;;
34212;SDS011;20477;51.390;8.102;2024-02-26T02:19:24;1.77;;;1.45;;
34212;SDS011;20477;51.390;8.102;2024-02-26T02:21:52;4.15;;;1.50;;
34212;SDS011;20477;51.390;8.102;2024-02-26T02:24:19;3.25;;;1.50;;
34212;SDS011;20477;51.390;8.102;2024-02-26T02:26:46;1.63;;;1.20;;
34212;SDS011;20477;51.390;8.102;2024-02-26T02:29:13;6.03;;;1.27;;
34212;SDS011;20477;51.390;8.102;2024-02-26T02:31:41;1.40;;;0.88;;
34212;SDS011;20477;51.390;8.102;2024-02-26T02:34:09;2.33;;;1.38;;
34212;SDS011;20477;51.390;8.102;2024-02-26T02:36:47;2.63;;;1.33;;
34212;SDS011;20477;51.390;8.102;2024-02-26T02:39:16;1.58;;;1.02;;
34212;SDS011;20477;51.390;8.102;2024-02-26T02:41:43;2.10;;;1.08;;
34212;SDS011;20477;51.390;8.102;2024-02-26T02:44:10;2.72;;;1.17;;
34212;SDS011;20477;51.390;8.102;2024-02-26T02:46:38;4.95;;;1.08;;
34212;SDS011;20477;51.390;8.102;2024-02-26T02:49:07;2.08;;;1.20;;
34212;SDS011;20477;51.390;8.102;2024-02-26T02:51:34;1.13;;;1.00;;
34212;SDS011;20477;51.390;8.102;2024-02-26T02:54:01;2.03;;;1.30;;
34212;SDS011;20477;51.390;8.102;2024-02-26T02:56:30;1.95;;;1.10;;
34212;SDS011;20477;51.390;8.102;2024-02-26T02:58:56;2.25;;;1.38;;
34212;SDS011;20477;51.390;8.102;2024-02-26T03:01:23;3.22;;;1.50;;
34212;SDS011;20477;51.390;8.102;2024-02-26T03:03:50;2.15;;;1.48;;
34212;SDS011;20477;51.390;8.102;2024-02-26T03:06:17;3.03;;;1.52;;
34212;SDS011;20477;51.390;8.102;2024-02-26T03:08:44;3.20;;;2.00;;
34212;SDS011;20477;51.390;8.102;2024-02-26T03:11:13;3.88;;;1.30;;
34212;SDS011;20477;51.390;8.102;2024-02-26T03:13:41;2.70;;;1.42;;
34212;SDS011;20477;51.390;8.102;2024-02-26T03:16:08;1.85;;;1.13;;
34212;SDS011;20477;51.390;8.102;2024-02-26T03:18:35;2.55;;;1.65;;
34212;SDS011;20477;51.390;8.102;2024-02-26T03:21:04;2.38;;;1.25;;
34212;SDS011;20477;51.390;8.102;2024-02-26T03:23:32;2.25;;;1.02;;
34212;SDS011;20477;51.390;8.102;2024-02-26T03:25:59;2.33;;;1.10;;
34212;SDS011;20477;51.390;8.102;2024-02-26T03:28:26;1.73;;;1.20;;
34212;SDS011;20477;51.390;8.102;2024-02-26T03:30:54;1.45;;;1.13;;
34212;SDS011;20477;51.390;8.102;2024-02-26T03:33:21;4.68;;;1.67;;
34212;SDS011;20477;51.390;8.102;2024-02-26T03:35:48;3.05;;;1.42;;
34212;SDS011;20477;51.390;8.102;2024-02-26T03:38:15;1.60;;;1.15;;
34212;SDS011;20477;51.390;8.102;2024-02-26T03:40:42;2.03;;;1.58;;
34212;SDS011;20477;51.390;8.102;2024-02-26T03:43:09;3.08;;;1.35;;
34212;SDS011;20477;51.390;8.102;2024-02-26T03:45:36;3.63;;;1.60;;
34212;SDS011;20477;51.390;8.102;2024-02-26T03:48:05;1.52;;;1.10;;
34212;SDS011;20477;51.390;8.102;2024-02-26T03:50:32;2.45;;;1.38;;
34212;SDS011;20477;51.390;8.102;2024-02-26T03:52:59;2.15;;;1.10;;
34212;SDS011;20477;51.390;8.102;2024-02-26T03:55:26;3.08;;;1.20;;
34212;SDS011;20477;51.390;8.102;2024-02-26T03:57:53;1.52;;;1.25;;
34212;SDS011;20477;51.390;8.102;2024-02-26T04:00:20;2.28;;;1.20;;
34212;SDS011;20477;51.390;8.102;2024-02-26T04:02:48;1.92;;;1.33;;
34212;SDS011;20477;51.390;8.102;2024-02-26T04:05:17;2.78;;;1.83;;
34212;SDS011;20477;51.390;8.102;2024-02-26T04:07:44;1.63;;;1.15;;
34212;SDS011;20477;51.390;8.102;2024-02-26T04:10:11;1.83;;;1.42;;
34212;SDS011;20477;51.390;8.102;2024-02-26T04:12:38;6.70;;;1.88;;
34212;SDS011;20477;51.390;8.102;2024-02-26T04:15:05;2.35;;;1.45;;
34212;SDS011;20477;51.390;8.102;2024-02-26T04:17:33;3.08;;;1.52;;
34212;SDS011;20477;51.390;8.102;2024-02-26T04:20:00;3.38;;;1.40;;
34212;SDS011;20477;51.390;8.102;2024-02-26T04:22:28;1.25;;;1.15;;
34212;SDS011;20477;51.390;8.102;2024-02-26T04:24:55;1.58;;;1.02;;
34212;SDS011;20477;51.390;8.102;2024-02-26T04:27:22;6.78;;;3.83;;
34212;SDS011;20477;51.390;8.102;2024-02-26T04:29:49;17.08;;;8.15;;
34212;SDS011;20477;51.390;8.102;2024-02-26T04:32:16;3.58;;;2.05;;
34212;SDS011;20477;51.390;8.102;2024-02-26T04:34:43;2.03;;;1.60;;
34212;SDS011;20477;51.390;8.102;2024-02-26T04:37:10;1.75;;;1.33;;
34212;SDS011;20477;51.390;8.102;2024-02-26T04:39:38;4.03;;;2.00;;
34212;SDS011;20477;51.390;8.102;2024-02-26T04:42:05;2.08;;;1.50;;
34212;SDS011;20477;51.390;8.102;2024-02-26T04:44:32;3.92;;;1.80;;
34212;SDS011;20477;51.390;8.102;2024-02-26T04:46:59;6.30;;;2.03;;
34212;SDS011;20477;51.390;8.102;2024-02-26T04:49:26;4.80;;;2.35;;
34212;SDS011;20477;51.390;8.102;2024-02-26T04:51:53;2.72;;;1.85;;
34212;SDS011;20477;51.390;8.102;2024-02-26T04:54:20;3.25;;;1.83;;
34212;SDS011;20477;51.390;8.102;2024-02-26T04:56:49;4.07;;;1.80;;
34212;SDS011;20477;51.390;8.102;2024-02-26T04:59:16;4.05;;;1.70;;
34212;SDS011;20477;51.390;8.102;2024-02-26T05:01:43;3.30;;;1.85;;
34212;SDS011;20477;51.390;8.102;2024-02-26T05:04:10;4.45;;;1.90;;
34212;SDS011;20477;51.390;8.102;2024-02-26T05:06:37;3.15;;;2.42;;
34212;SDS011;20477;51.390;8.102;2024-02-26T05:09:04;3.80;;;1.90;;
34212;SDS011;20477;51.390;8.102;2024-02-26T05:11:31;5.82;;;2.25;;
34212;SDS011;20477;51.390;8.102;2024-02-26T05:13:59;4.07;;;2.42;;
34212;SDS011;20477;51.390;8.102;2024-02-26T05:16:26;2.00;;;1.63;;
34212;SDS011;20477;51.390;8.102;2024-02-26T05:18:53;3.50;;;2.00;;
34212;SDS011;20477;51.390;8.102;2024-02-26T05:21:20;4.20;;;1.50;;
34212;SDS011;20477;51.390;8.102;2024-02-26T05:23:47;4.72;;;1.88;;
34212;SDS011;20477;51.390;8.102;2024-02-26T05:26:19;4.53;;;2.65;;
34212;SDS011;20477;51.390;8.102;2024-02-26T05:28:46;2.28;;;1.60;;
34212;SDS011;20477;51.390;8.102;2024-02-26T05:31:14;2.67;;;2.00;;
34212;SDS011;20477;51.390;8.102;2024-02-26T05:33:41;3.28;;;2.10;;
34212;SDS011;20477;51.390;8.102;2024-02-26T05:36:09;4.82;;;2.05;;
34212;SDS011;20477;51.390;8.102;2024-02-26T05:38:36;5.45;;;1.88;;
34212;SDS011;20477;51.390;8.102;2024-02-26T05:41:03;2.78;;;1.75;;
34212;SDS011;20477;51.390;8.102;2024-02-26T05:43:30;3.95;;;1.80;;
34212;SDS011;20477;51.390;8.102;2024-02-26T05:45:57;4.22;;;2.25;;
34212;SDS011;20477;51.390;8.102;2024-02-26T05:48:25;2.95;;;1.95;;
34212;SDS011;20477;51.390;8.102;2024-02-26T05:50:52;3.63;;;1.70;;
34212;SDS011;20477;51.390;8.102;2024-02-26T05:53:19;2.85;;;1.90;;
34212;SDS011;20477;51.390;8.102;2024-02-26T05:55:46;4.38;;;1.88;;
34212;SDS011;20477;51.390;8.102;2024-02-26T05:58:13;3.05;;;1.90;;
34212;SDS011;20477;51.390;8.102;2024-02-26T06:00:40;4.45;;;2.10;;
34212;SDS011;20477;51.390;8.102;2024-02-26T06:03:07;6.57;;;1.80;;
34212;SDS011;20477;51.390;8.102;2024-02-26T06:05:35;3.40;;;2.00;;
34212;SDS011;20477;51.390;8.102;2024-02-26T06:08:02;5.05;;;2.13;;
34212;SDS011;20477;51.390;8.102;2024-02-26T06:10:30;4.47;;;2.10;;
34212;SDS011;20477;51.390;8.102;2024-02-26T06:12:56;5.75;;;2.38;;
34212;SDS011;20477;51.390;8.102;2024-02-26T06:15:23;3.45;;;2.33;;
34212;SDS011;20477;51.390;8.102;2024-02-26T06:17:50;3.83;;;2.20;;
34212;SDS011;20477;51.390;8.102;2024-02-26T06:20:17;5.80;;;2.10;;
34212;SDS011;20477;51.390;8.102;2024-02-26T06:22:46;5.47;;;2.10;;
34212;SDS011;20477;51.390;8.102;2024-02-26T06:25:13;4.05;;;1.95;;
34212;SDS011;20477;51.390;8.102;2024-02-26T06:27:40;4.88;;;2.47;;
34212;SDS011;20477;51.390;8.102;2024-02-26T06:30:07;6.10;;;2.30;;
34212;SDS011;20477;51.390;8.102;2024-02-26T06:32:34;4.50;;;2.63;;
34212;SDS011;20477;51.390;8.102;2024-02-26T06:35:01;4.40;;;2.70;;
34212;SDS011;20477;51.390;8.102;2024-02-26T06:37:33;4.35;;;2.80;;
34212;SDS011;20477;51.390;8.102;2024-02-26T06:40:02;6.13;;;2.85;;
34212;SDS011;20477;51.390;8.102;2024-02-26T06:42:29;5.22;;;2.65;;
34212;SDS011;20477;51.390;8.102;2024-02-26T06:44:56;4.68;;;2.88;;
34212;SDS011;20477;51.390;8.102;2024-02-26T06:47:23;4.32;;;3.30;;
34212;SDS011;20477;51.390;8.102;2024-02-26T06:49:50;5.35;;;3.17;;
34212;SDS011;20477;51.390;8.102;2024-02-26T06:52:18;6.40;;;3.40;;
34212;SDS011;20477;51.390;8.102;2024-02-26T06:54:44;3.95;;;2.58;;
34212;SDS011;20477;51.390;8.102;2024-02-26T06:57:14;5.30;;;2.80;;
34212;SDS011;20477;51.390;8.102;2024-02-26T06:59:41;5.72;;;2.75;;
34212;SDS011;20477;51.390;8.102;2024-02-26T07:02:09;5.45;;;2.38;;
34212;SDS011;20477;51.390;8.102;2024-02-26T07:04:36;4.47;;;2.60;;
34212;SDS011;20477;51.390;8.102;2024-02-26T07:07:03;4.32;;;2.65;;
34212;SDS011;20477;51.390;8.102;2024-02-26T07:09:30;5.78;;;2.85;;
34212;SDS011;20477;51.390;8.102;2024-02-26T07:11:57;5.78;;;3.10;;
34212;SDS011;20477;51.390;8.102;2024-02-26T07:14:28;7.18;;;2.80;;
34212;SDS011;20477;51.390;8.102;2024-02-26T07:16:55;4.85;;;3.38;;
34212;SDS011;20477;51.390;8.102;2024-02-26T07:19:23;7.25;;;3.75;;
34212;SDS011;20477;51.390;8.102;2024-02-26T07:21:50;4.25;;;3.03;;
34212;SDS011;20477;51.390;8.102;2024-02-26T07:24:17;4.78;;;2.63;;
34212;SDS011;20477;51.390;8.102;2024-02-26T07:26:44;3.65;;;2.00;;
34212;SDS011;20477;51.390;8.102;2024-02-26T07:29:11;5.50;;;2.63;;
34212;SDS011;20477;51.390;8.102;2024-02-26T07:31:40;4.15;;;2.47;;
34212;SDS011;20477;51.390;8.102;2024-02-26T07:34:07;3.67;;;2.30;;
34212;SDS011;20477;51.390;8.102;2024-02-26T07:36:34;3.30;;;2.35;;
34212;SDS011;20477;51.390;8.102;2024-02-26T07:39:01;3.58;;;2.70;;
34212;SDS011;20477;51.390;8.102;2024-02-26T07:41:28;3.47;;;2.70;;
34212;SDS011;20477;51.390;8.102;2024-02-26T07:43:55;10.13;;;2.85;;
34212;SDS011;20477;51.390;8.102;2024-02-26T07:46:22;3.72;;;2.63;;
34212;SDS011;20477;51.390;8.102;2024-02-26T07:48:50;3.33;;;2.72;;
34212;SDS011;20477;51.390;8.102;2024-02-26T07:51:17;5.03;;;3.30;;
34212;SDS011;20477;51.390;8.102;2024-02-26T07:53:44;5.70;;;2.90;;
34212;SDS011;20477;51.390;8.102;2024-02-26T07:56:11;6.95;;;3.15;;
34212;SDS011;20477;51.390;8.102;2024-02-26T07:58:38;3.33;;;2.75;;
34212;SDS011;20477;51.390;8.102;2024-02-26T08:01:05;5.47;;;2.60;;
34212;SDS011;20477;51.390;8.102;2024-02-26T08:03:32;5.13;;;2.30;;
34212;SDS011;20477;51.390;8.102;2024-02-26T08:06:01;11.23;;;4.38;;
34212;SDS011;20477;51.390;8.102;2024-02-26T08:08:28;7.35;;;3.30;;
34212;SDS011;20477;51.390;8.102;2024-02-26T08:10:55;4.82;;;3.05;;
34212;SDS011;20477;51.390;8.102;2024-02-26T08:13:22;4.60;;;2.58;;
34212;SDS011;20477;51.390;8.102;2024-02-26T08:15:49;6.13;;;3.42;;
34212;SDS011;20477;51.390;8.102;2024-02-26T08:18:15;7.95;;;3.45;;
34212;SDS011;20477;51.390;8.102;2024-02-26T08:20:43;5.47;;;3.63;;
34212;SDS011;20477;51.390;8.102;2024-02-26T08:23:11;6.13;;;3.83;;
34212;SDS011;20477;51.390;8.102;2024-02-26T08:25:38;6.40;;;3.65;;
34212;SDS011;20477;51.390;8.102;2024-02-26T08:28:05;4.88;;;3.00;;
34212;SDS011;20477;51.390;8.102;2024-02-26T08:30:32;7.47;;;4.07;;
34212;SDS011;20477;51.390;8.102;2024-02-26T08:32:59;6.65;;;3.22;;
34212;SDS011;20477;51.390;8.102;2024-02-26T08:35:26;8.05;;;3.47;;
34212;SDS011;20477;51.390;8.102;2024-02-26T08:37:53;7.05;;;3.65;;
34212;SDS011;20477;51.390;8.102;2024-02-26T08:40:22;4.05;;;3.33;;
34212;SDS011;20477;51.390;8.102;2024-02-26T08:42:49;5.07;;;2.90;;
34212;SDS011;20477;51.390;8.102;2024-02-26T08:45:16;6.32;;;3.33;;
34212;SDS011;20477;51.390;8.102;2024-02-26T08:47:44;7.78;;;4.53;;
34212;SDS011;20477;51.390;8.102;2024-02-26T08:50:11;7.63;;;3.63;;
34212;SDS011;20477;51.390;8.102;2024-02-26T08:52:38;4.60;;;3.40;;
34212;SDS011;20477;51.390;8.102;2024-02-26T08:55:05;10.63;;;3.42;;
34212;SDS011;20477;51.390;8.102;2024-02-26T08:57:34;6.75;;;3.53;;
34212;SDS011;20477;51.390;8.102;2024-02-26T09:00:01;11.73;;;3.35;;
34212;SDS011;20477;51.390;8.102;2024-02-26T09:02:28;4.35;;;3.53;;
34212;SDS011;20477;51.390;8.102;2024-02-26T09:04:55;7.82;;;3.40;;
34212;SDS011;20477;51.390;8.102;2024-02-26T09:07:22;9.93;;;3.70;;
34212;SDS011;20477;51.390;8.102;2024-02-26T09:09:49;7.30;;;3.15;;
34212;SDS011;20477;51.390;8.102;2024-02-26T09:12:16;7.72;;;3.88;;
34212;SDS011;20477;51.390;8.102;2024-02-26T09:14:44;7.35;;;3.40;;
34212;SDS011;20477;51.390;8.102;2024-02-26T09:17:11;6.28;;;3.97;;
34212;SDS011;20477;51.390;8.102;2024-02-26T09:19:38;10.63;;;6.70;;
34212;SDS011;20477;51.390;8.102;2024-02-26T09:22:05;6.47;;;3.60;;
34212;SDS011;20477;51.390;8.102;2024-02-26T09:24:33;9.80;;;4.22;;
34212;SDS011;20477;51.390;8.102;2024-02-26T09:27:00;7.50;;;4.18;;
34212;SDS011;20477;51.390;8.102;2024-02-26T09:29:27;9.15;;;4.47;;
34212;SDS011;20477;51.390;8.102;2024-02-26T09:31:55;7.10;;;4.43;;
34212;SDS011;20477;51.390;8.102;2024-02-26T09:34:22;9.00;;;6.25;;
34212;SDS011;20477;51.390;8.102;2024-02-26T09:36:49;13.70;;;7.47;;
34212;SDS011;20477;51.390;8.102;2024-02-26T09:39:16;9.45;;;4.45;;
34212;SDS011;20477;51.390;8.102;2024-02-26T09:41:45;11.60;;;5.38;;
34212;SDS011;20477;51.390;8.102;2024-02-26T09:44:12;7.25;;;4.80;;
34212;SDS011;20477;51.390;8.102;2024-02-26T09:46:42;9.73;;;5.00;;
34212;SDS011;20477;51.390;8.102;2024-02-26T09:49:10;9.25;;;6.00;;
34212;SDS011;20477;51.390;8.102;2024-02-26T09:51:38;10.57;;;5.82;;
34212;SDS011;20477;51.390;8.102;2024-02-26T09:54:05;9.25;;;6.07;;
34212;SDS011;20477;51.390;8.102;2024-02-26T09:56:35;13.00;;;6.78;;
34212;SDS011;20477;51.390;8.102;2024-02-26T09:59:10;11.07;;;5.65;;
34212;SDS011;20477;51.390;8.102;2024-02-26T10:01:39;9.05;;;6.20;;
34212;SDS011;20477;51.390;8.102;2024-02-26T10:04:10;9.23;;;6.20;;
34212;SDS011;20477;51.390;8.102;2024-02-26T10:06:37;8.35;;;5.55;;
34212;SDS011;20477;51.390;8.102;2024-02-26T10:09:05;12.45;;;6.60;;
34212;SDS011;20477;51.390;8.102;2024-02-26T10:11:32;14.68;;;6.38;;
34212;SDS011;20477;51.390;8.102;2024-02-26T10:14:02;11.55;;;5.60;;
34212;SDS011;20477;51.390;8.102;2024-02-26T10:16:29;8.00;;;6.13;;
34212;SDS011;20477;51.390;8.102;2024-02-26T10:18:56;11.82;;;6.53;;
34212;SDS011;20477;51.390;8.102;2024-02-26T10:21:27;12.15;;;6.30;;
34212;SDS011;20477;51.390;8.102;2024-02-26T10:23:54;12.38;;;7.07;;
34212;SDS011;20477;51.390;8.102;2024-02-26T10:26:21;10.13;;;6.70;;
34212;SDS011;20477;51.390;8.102;2024-02-26T10:28:48;13.80;;;7.35;;
34212;SDS011;20477;51.390;8.102;2024-02-26T10:31:20;10.60;;;6.47;;
34212;SDS011;20477;51.390;8.102;2024-02-26T10:33:48;11.90;;;7.25;;
34212;SDS011;20477;51.390;8.102;2024-02-26T10:36:15;11.43;;;6.90;;
34212;SDS011;20477;51.390;8.102;2024-02-26T10:38:44;10.27;;;7.10;;
34212;SDS011;20477;51.390;8.102;2024-02-26T10:41:13;11.75;;;6.32;;
34212;SDS011;20477;51.390;8.102;2024-02-26T10:43:41;10.55;;;7.63;;
34212;SDS011;20477;51.390;8.102;2024-02-26T10:46:08;11.25;;;7.55;;
34212;SDS011;20477;51.390;8.102;2024-02-26T10:48:35;14.70;;;8.27;;
34212;SDS011;20477;51.390;8.102;2024-02-26T10:51:03;15.77;;;8.30;;
34212;SDS011;20477;51.390;8.102;2024-02-26T10:53:30;12.20;;;8.98;;
34212;SDS011;20477;51.390;8.102;2024-02-26T10:56:00;17.98;;;9.70;;
34212;SDS011;20477;51.390;8.102;2024-02-26T10:58:29;13.85;;;8.60;;
34212;SDS011;20477;51.390;8.102;2024-02-26T11:00:58;13.45;;;8.68;;
34212;SDS011;20477;51.390;8.102;2024-02-26T11:03:25;13.85;;;8.52;;
34212;SDS011;20477;51.390;8.102;2024-02-26T11:05:53;16.58;;;9.70;;
34212;SDS011;20477;51.390;8.102;2024-02-26T11:08:21;15.27;;;9.50;;
34212;SDS011;20477;51.390;8.102;2024-02-26T11:10:48;16.80;;;9.23;;
34212;SDS011;20477;51.390;8.102;2024-02-26T11:13:21;14.32;;;9.23;;
34212;SDS011;20477;51.390;8.102;2024-02-26T11:15:48;14.27;;;9.88;;
34212;SDS011;20477;51.390;8.102;2024-02-26T11:18:15;16.20;;;9.82;;
34212;SDS011;20477;51.390;8.102;2024-02-26T11:20:43;13.57;;;9.25;;
34212;SDS011;20477;51.390;8.102;2024-02-26T11:23:11;14.63;;;9.70;;
34212;SDS011;20477;51.390;8.102;2024-02-26T11:25:38;13.85;;;9.30;;
34212;SDS011;20477;51.390;8.102;2024-02-26T11:28:05;15.40;;;10.63;;
34212;SDS011;20477;51.390;8.102;2024-02-26T11:30:37;19.70;;;9.98;;
34212;SDS011;20477;51.390;8.102;2024-02-26T11:33:06;15.77;;;10.38;;
34212;SDS011;20477;51.390;8.102;2024-02-26T11:35:35;17.38;;;10.48;;
34212;SDS011;20477;51.390;8.102;2024-02-26T11:38:03;16.20;;;9.32;;
34212;SDS011;20477;51.390;8.102;2024-02-26T11:40:31;16.65;;;9.80;;
34212;SDS011;20477;51.390;8.102;2024-02-26T11:42:58;15.80;;;10.40;;
34212;SDS011;20477;51.390;8.102;2024-02-26T11:48:15;16.65;;;10.43;;
34212;SDS011;20477;51.390;8.102;2024-02-26T11:50:45;13.93;;;9.60;;
34212;SDS011;20477;51.390;8.102;2024-02-26T11:53:20;16.48;;;10.43;;
34212;SDS011;20477;51.390;8.102;2024-02-26T11:58:47;17.15;;;10.90;;
34212;SDS011;20477;51.390;8.102;2024-02-26T12:04:05;11.80;;;7.45;;
34212;SDS011;20477;51.390;8.102;2024-02-26T12:06:39;14.15;;;9.93;;
34212;SDS011;20477;51.390;8.102;2024-02-26T12:09:08;16.92;;;9.13;;
34212;SDS011;20477;51.390;8.102;2024-02-26T12:11:37;16.45;;;9.70;;
34212;SDS011;20477;51.390;8.102;2024-02-26T12:14:05;16.17;;;10.00;;
34212;SDS011;20477;51.390;8.102;2024-02-26T12:16:35;15.02;;;10.45;;
34212;SDS011;20477;51.390;8.102;2024-02-26T12:19:05;15.65;;;9.50;;
34212;SDS011;20477;51.390;8.102;2024-02-26T12:21:33;14.48;;;8.73;;
34212;SDS011;20477;51.390;8.102;2024-02-26T12:24:11;13.07;;;8.60;;
34212;SDS011;20477;51.390;8.102;2024-02-26T12:26:38;14.07;;;9.77;;
34212;SDS011;20477;51.390;8.102;2024-02-26T12:29:06;12.27;;;9.07;;
34212;SDS011;20477;51.390;8.102;2024-02-26T12:31:33;14.70;;;8.70;;
34212;SDS011;20477;51.390;8.102;2024-02-26T12:34:00;15.90;;;9.70;;
34212;SDS011;20477;51.390;8.102;2024-02-26T12:36:29;14.35;;;8.70;;
34212;SDS011;20477;51.390;8.102;2024-02-26T12:38:56;11.85;;;8.50;;
34212;SDS011;20477;51.390;8.102;2024-02-26T12:41:23;15.48;;;8.30;;
34212;SDS011;20477;51.390;8.102;2024-02-26T12:43:50;12.20;;;8.10;;
34212;SDS011;20477;51.390;8.102;2024-02-26T12:46:17;11.55;;;7.90;;
34212;SDS011;20477;51.390;8.102;2024-02-26T12:48:44;13.13;;;7.75;;
34212;SDS011;20477;51.390;8.102;2024-02-26T12:51:13;11.95;;;7.57;;
34212;SDS011;20477;51.390;8.102;2024-02-26T12:53:42;11.18;;;8.00;;
34212;SDS011;20477;51.390;8.102;2024-02-26T12:56:09;13.20;;;7.40;;
34212;SDS011;20477;51.390;8.102;2024-02-26T12:58:36;16.08;;;8.05;;
34212;SDS011;20477;51.390;8.102;2024-02-26T13:01:04;9.10;;;7.18;;
34212;SDS011;20477;51.390;8.102;2024-02-26T13:03:32;12.07;;;7.15;;
34212;SDS011;20477;51.390;8.102;2024-02-26T13:06:00;12.70;;;7.60;;
34212;SDS011;20477;51.390;8.102;2024-02-26T13:08:27;12.35;;;7.00;;
34212;SDS011;20477;51.390;8.102;2024-02-26T13:10:55;12.15;;;7.55;;
34212;SDS011;20477;51.390;8.102;2024-02-26T13:13:22;12.43;;;8.35;;
34212;SDS011;20477;51.390;8.102;2024-02-26T13:15:49;10.43;;;7.68;;
34212;SDS011;20477;51.390;8.102;2024-02-26T13:18:16;9.75;;;6.97;;
34212;SDS011;20477;51.390;8.102;2024-02-26T13:20:43;15.73;;;7.80;;
34212;SDS011;20477;51.390;8.102;2024-02-26T13:23:11;13.23;;;8.10;;
34212;SDS011;20477;51.390;8.102;2024-02-26T13:25:38;10.02;;;7.47;;
34212;SDS011;20477;51.390;8.102;2024-02-26T13:28:13;14.67;;;7.57;;
34212;SDS011;20477;51.390;8.102;2024-02-26T13:30:41;11.82;;;8.20;;
34212;SDS011;20477;51.390;8.102;2024-02-26T13:33:09;13.45;;;7.90;;
34212;SDS011;20477;51.390;8.102;2024-02-26T13:35:36;12.18;;;7.93;;
34212;SDS011;20477;51.390;8.102;2024-02-26T13:38:03;11.82;;;7.50;;
34212;SDS011;20477;51.390;8.102;2024-02-26T13:40:30;13.27;;;7.97;;
34212;SDS011;20477;51.390;8.102;2024-02-26T13:42:57;11.85;;;7.97;;
34212;SDS011;20477;51.390;8.102;2024-02-26T13:45:26;10.95;;;7.78;;
34212;SDS011;20477;51.390;8.102;2024-02-26T13:47:59;12.75;;;7.65;;
34212;SDS011;20477;51.390;8.102;2024-02-26T13:50:28;11.63;;;7.60;;
34212;SDS011;20477;51.390;8.102;2024-02-26T13:52:55;10.35;;;7.57;;
34212;SDS011;20477;51.390;8.102;2024-02-26T13:55:22;10.00;;;6.90;;
34212;SDS011;20477;51.390;8.102;2024-02-26T13:57:49;14.35;;;8.20;;
34212;SDS011;20477;51.390;8.102;2024-02-26T14:00:16;14.20;;;7.40;;
34212;SDS011;20477;51.390;8.102;2024-02-26T14:02:45;11.30;;;7.00;;
34212;SDS011;20477;51.390;8.102;2024-02-26T14:05:12;10.82;;;7.50;;
34212;SDS011;20477;51.390;8.102;2024-02-26T14:07:39;11.75;;;7.75;;
34212;SDS011;20477;51.390;8.102;2024-02-26T14:10:07;10.32;;;7.13;;
34212;SDS011;20477;51.390;8.102;2024-02-26T14:12:35;13.98;;;7.70;;
34212;SDS011;20477;51.390;8.102;2024-02-26T14:15:02;9.05;;;7.20;;
34212;SDS011;20477;51.390;8.102;2024-02-26T14:17:30;8.88;;;7.13;;
34212;SDS011;20477;51.390;8.102;2024-02-26T14:19:58;10.82;;;6.85;;
34212;SDS011;20477;51.390;8.102;2024-02-26T14:22:25;8.75;;;6.72;;
34212;SDS011;20477;51.390;8.102;2024-02-26T14:24:52;13.20;;;7.95;;
34212;SDS011;20477;51.390;8.102;2024-02-26T14:27:19;11.90;;;7.38;;
34212;SDS011;20477;51.390;8.102;2024-02-26T14:29:46;11.43;;;6.88;;
34212;SDS011;20477;51.390;8.102;2024-02-26T14:32:14;12.40;;;7.10;;
34212;SDS011;20477;51.390;8.102;2024-02-26T14:34:41;10.82;;;6.38;;
34212;SDS011;20477;51.390;8.102;2024-02-26T14:37:09;12.23;;;7.63;;
34212;SDS011;20477;51.390;8.102;2024-02-26T14:39:37;12.23;;;6.57;;
34212;SDS011;20477;51.390;8.102;2024-02-26T14:42:04;8.90;;;5.93;;
34212;SDS011;20477;51.390;8.102;2024-02-26T14:44:31;10.57;;;5.70;;
34212;SDS011;20477;51.390;8.102;2024-02-26T14:46:58;11.43;;;6.45;;
34212;SDS011;20477;51.390;8.102;2024-02-26T14:49:25;9.20;;;6.80;;
34212;SDS011;20477;51.390;8.102;2024-02-26T14:51:52;8.93;;;6.95;;
34212;SDS011;20477;51.390;8.102;2024-02-26T14:54:20;11.43;;;7.35;;